createdAt,value
2019-05-29T00:00:44.173Z,2.43
2019-05-29T00:03:14.450Z,2.60
2019-05-29T00:05:44.283Z,2.17
2019-05-29T00:08:14.695Z,2.40
2019-05-29T00:10:44.809Z,2.30
2019-05-29T00:13:14.564Z,2.67
2019-05-29T00:15:44.232Z,2.40
2019-05-29T00:18:14.601Z,2.60
2019-05-29T00:20:44.435Z,2.57
2019-05-29T00:23:14.697Z,2.50
2019-05-29T00:25:44.563Z,2.70
2019-05-29T00:28:14.900Z,2.53
2019-05-29T00:30:44.737Z,2.60
2019-05-29T00:33:14.577Z,2.70
2019-05-29T00:35:44.363Z,2.77
2019-05-29T00:38:14.730Z,2.23
2019-05-29T00:40:44.860Z,2.50
2019-05-29T00:43:15.479Z,2.40
2019-05-29T00:45:45.267Z,2.57
2019-05-29T00:48:16.052Z,3.07
2019-05-29T00:50:45.877Z,2.57
2019-05-29T00:53:16.405Z,2.47
2019-05-29T00:55:46.150Z,2.40
2019-05-29T00:58:17.072Z,3.07
2019-05-29T01:00:47.016Z,2.70
2019-05-29T01:03:17.915Z,2.70
2019-05-29T01:05:47.603Z,2.50
2019-05-29T01:08:18.140Z,2.93
2019-05-29T01:10:48.099Z,2.60
2019-05-29T01:13:19.140Z,2.60
2019-05-29T01:15:49.098Z,2.50
2019-05-29T01:18:20.014Z,2.77
2019-05-29T01:20:49.870Z,2.63
2019-05-29T01:23:20.363Z,2.97
2019-05-29T01:25:50.030Z,2.93
2019-05-29T01:28:20.939Z,2.63
2019-05-29T01:30:51.601Z,2.83
2019-05-29T01:33:24.558Z,2.90
2019-05-29T01:35:53.885Z,3.00
2019-05-29T01:38:23.829Z,2.87
2019-05-29T01:40:53.464Z,2.93
2019-05-29T01:43:23.547Z,3.23
2019-05-29T01:45:53.290Z,3.10
2019-05-29T01:48:23.628Z,3.00
2019-05-29T01:50:53.424Z,2.90
2019-05-29T01:53:23.771Z,3.27
2019-05-29T01:55:53.448Z,2.77
2019-05-29T01:58:23.904Z,2.77
2019-05-29T02:00:53.594Z,3.00
2019-05-29T02:03:23.997Z,2.80
2019-05-29T02:05:53.797Z,2.67
2019-05-29T02:08:24.283Z,2.83
2019-05-29T02:10:54.092Z,2.80
2019-05-29T02:13:23.786Z,3.13
2019-05-29T02:15:53.462Z,3.00
2019-05-29T02:18:23.362Z,3.17
2019-05-29T02:20:53.113Z,2.90
2019-05-29T02:23:22.756Z,3.03
2019-05-29T02:25:52.446Z,3.30
2019-05-29T02:28:22.626Z,2.70
2019-05-29T02:30:52.382Z,2.60
2019-05-29T02:33:24.111Z,3.03
2019-05-29T02:35:53.474Z,2.83
2019-05-29T02:38:24.927Z,3.70
2019-05-29T02:40:54.613Z,3.33
2019-05-29T02:43:25.975Z,3.43
2019-05-29T02:45:55.707Z,3.67
2019-05-29T02:48:27.301Z,3.27
2019-05-29T02:50:56.986Z,3.70
2019-05-29T02:53:28.507Z,3.57
2019-05-29T02:55:58.037Z,3.40
2019-05-29T02:58:29.714Z,3.33
2019-05-29T03:00:59.384Z,3.43
2019-05-29T03:03:33.011Z,3.27
2019-05-29T03:06:01.258Z,3.27
2019-05-29T03:08:34.167Z,3.10
2019-05-29T03:11:03.623Z,3.17
2019-05-29T03:13:33.851Z,3.60
2019-05-29T03:16:11.812Z,3.50
2019-05-29T03:18:35.372Z,3.60
2019-05-29T03:21:05.082Z,3.50
2019-05-29T03:23:36.318Z,3.30
2019-05-29T03:26:06.658Z,3.43
2019-05-29T03:28:38.003Z,3.67
2019-05-29T03:31:07.792Z,3.40
2019-05-29T03:33:45.257Z,3.63
2019-05-29T03:36:08.835Z,3.60
2019-05-29T03:38:38.713Z,3.93
2019-05-29T03:41:08.466Z,3.53
2019-05-29T03:43:38.773Z,3.17
2019-05-29T03:46:26.435Z,3.30
2019-05-29T03:48:48.806Z,3.73
2019-05-29T03:51:18.493Z,3.90
2019-05-29T03:53:48.173Z,4.30
2019-05-29T03:56:18.005Z,3.30
2019-05-29T03:58:47.631Z,4.00
2019-05-29T04:01:17.453Z,3.83
2019-05-29T04:03:47.272Z,3.80
2019-05-29T04:06:16.948Z,3.33
2019-05-29T04:08:46.643Z,3.80
2019-05-29T04:11:16.277Z,3.67
2019-05-29T04:13:46.073Z,3.47
2019-05-29T04:16:17.084Z,3.33
2019-05-29T04:18:48.323Z,3.80
2019-05-29T04:21:20.594Z,3.30
2019-05-29T04:23:51.775Z,3.93
2019-05-29T04:26:24.556Z,3.80
2019-05-29T04:28:54.522Z,3.53
2019-05-29T04:31:24.342Z,3.87
2019-05-29T04:33:54.002Z,2.87
2019-05-29T04:36:23.700Z,3.70
2019-05-29T04:38:53.369Z,3.67
2019-05-29T04:41:23.102Z,3.20
2019-05-29T04:43:56.862Z,3.43
2019-05-29T04:46:24.277Z,3.20
2019-05-29T04:48:53.965Z,3.37
2019-05-29T04:51:23.614Z,3.50
2019-05-29T04:53:53.376Z,3.23
2019-05-29T04:56:23.025Z,3.30
2019-05-29T04:58:52.886Z,3.30
2019-05-29T05:01:22.525Z,3.50
2019-05-29T05:03:52.294Z,3.60
2019-05-29T05:06:22.102Z,3.43
2019-05-29T05:08:51.772Z,4.00
2019-05-29T05:11:21.560Z,3.30
2019-05-29T05:13:51.407Z,3.60
2019-05-29T05:16:21.064Z,3.63
2019-05-29T05:18:50.839Z,4.50
2019-05-29T05:21:20.539Z,4.80
2019-05-29T05:23:50.175Z,3.97
2019-05-29T05:26:19.950Z,3.60
2019-05-29T05:28:49.746Z,3.73
2019-05-29T05:31:19.485Z,3.87
2019-05-29T05:33:49.161Z,3.30
2019-05-29T05:36:18.913Z,3.60
2019-05-29T05:38:48.574Z,2.90
2019-05-29T05:41:18.344Z,3.10
2019-05-29T05:43:48.020Z,3.07
2019-05-29T05:46:17.730Z,3.03
2019-05-29T05:48:47.527Z,3.10
2019-05-29T05:51:17.325Z,3.00
2019-05-29T05:53:47.047Z,3.20
2019-05-29T05:56:16.686Z,3.00
2019-05-29T05:58:46.428Z,3.10
2019-05-29T06:01:16.155Z,2.97
2019-05-29T06:03:45.910Z,3.07
2019-05-29T06:06:15.560Z,3.00
2019-05-29T06:08:45.492Z,3.20
2019-05-29T06:11:15.245Z,3.30
2019-05-29T06:13:44.992Z,3.10
2019-05-29T06:16:14.668Z,2.93
2019-05-29T06:18:44.375Z,2.90
2019-05-29T06:21:14.148Z,2.73
2019-05-29T06:23:43.999Z,3.23
2019-05-29T06:26:14.163Z,2.50
2019-05-29T06:28:44.272Z,2.60
2019-05-29T06:31:14.000Z,2.50
2019-05-29T06:33:44.095Z,4.10
2019-05-29T06:36:13.960Z,1.80
2019-05-29T06:38:44.432Z,2.10
2019-05-29T06:41:14.666Z,1.70
2019-05-29T06:43:44.712Z,1.37
2019-05-29T06:46:14.637Z,1.50
2019-05-29T06:48:56.267Z,1.70
2019-05-29T06:51:15.770Z,1.47
2019-05-29T06:53:45.569Z,1.60
2019-05-29T06:56:16.256Z,1.40
2019-05-29T06:58:46.651Z,1.27
2019-05-29T07:01:16.492Z,1.60
2019-05-29T07:03:46.139Z,1.70
2019-05-29T07:06:16.009Z,1.60
2019-05-29T07:08:48.334Z,1.40
2019-05-29T07:11:17.063Z,1.30
2019-05-29T07:13:49.618Z,1.10
2019-05-29T07:16:18.197Z,1.23
2019-05-29T07:19:22.949Z,1.27
2019-05-29T07:21:19.277Z,1.97
2019-05-29T07:23:49.141Z,1.30
2019-05-29T07:26:18.947Z,1.20
2019-05-29T07:29:07.663Z,1.53
2019-05-29T07:31:20.121Z,1.50
2019-05-29T07:33:49.808Z,1.30
2019-05-29T07:36:19.509Z,1.20
2019-05-29T07:39:02.040Z,1.33
2019-05-29T07:41:20.644Z,1.17
2019-05-29T07:43:50.287Z,1.30
2019-05-29T07:46:19.978Z,1.10
2019-05-29T07:48:50.432Z,1.10
2019-05-29T07:51:20.487Z,1.40
2019-05-29T07:53:50.249Z,1.20
2019-05-29T07:56:23.081Z,1.60
2019-05-29T07:59:01.758Z,1.20
2019-05-29T08:01:22.909Z,1.27
2019-05-29T08:03:52.684Z,1.10
2019-05-29T08:06:22.454Z,1.60
2019-05-29T08:08:52.152Z,1.60
2019-05-29T08:11:21.802Z,1.43
2019-05-29T08:13:51.504Z,1.30
2019-05-29T08:16:21.173Z,1.33
2019-05-29T08:18:52.987Z,1.30
2019-05-29T08:21:22.457Z,1.60
2019-05-29T08:23:52.138Z,1.30
2019-05-29T08:26:21.952Z,1.50
2019-05-29T08:28:51.622Z,1.40
2019-05-29T08:31:21.386Z,1.40
2019-05-29T08:33:51.411Z,1.07
2019-05-29T08:36:21.281Z,1.30
2019-05-29T08:38:51.722Z,1.60
2019-05-29T08:41:21.766Z,1.50
2019-05-29T08:43:52.771Z,1.30
2019-05-29T08:46:22.665Z,1.43
2019-05-29T08:48:52.464Z,1.40
2019-05-29T08:51:22.175Z,1.60
2019-05-29T08:53:54.592Z,1.20
2019-05-29T08:56:23.697Z,1.20
2019-05-29T08:58:53.430Z,1.40
2019-05-29T09:01:23.157Z,1.00
2019-05-29T09:03:53.437Z,1.30
2019-05-29T09:06:23.436Z,1.23
2019-05-29T09:08:54.865Z,1.20
2019-05-29T09:11:24.708Z,1.40
2019-05-29T09:13:54.494Z,1.10
2019-05-29T09:16:24.304Z,1.30
2019-05-29T09:18:54.004Z,1.40
2019-05-29T09:21:26.601Z,1.03
2019-05-29T09:23:58.498Z,0.90
2019-05-29T09:26:27.030Z,0.90
2019-05-29T09:28:56.780Z,0.80
2019-05-29T09:31:26.485Z,0.90
2019-05-29T09:33:56.353Z,0.80
2019-05-29T09:36:26.030Z,0.80
2019-05-29T09:38:55.755Z,1.07
2019-05-29T09:41:25.675Z,0.90
2019-05-29T09:43:59.840Z,0.80
2019-05-29T09:46:27.147Z,0.90
2019-05-29T09:48:56.818Z,1.10
2019-05-29T09:51:27.617Z,0.90
2019-05-29T09:53:59.183Z,1.20
2019-05-29T09:56:29.074Z,1.57
2019-05-29T09:59:00.420Z,1.50
2019-05-29T10:01:30.115Z,1.40
2019-05-29T10:04:03.093Z,1.30
2019-05-29T10:06:31.230Z,1.03
2019-05-29T10:09:01.774Z,0.90
2019-05-29T10:11:31.468Z,0.97
2019-05-29T10:14:02.612Z,1.00
2019-05-29T10:16:32.498Z,0.90
2019-05-29T10:19:03.232Z,0.90
2019-05-29T10:21:40.149Z,0.93
2019-05-29T10:24:06.034Z,1.00
2019-05-29T10:26:35.983Z,1.10
2019-05-29T10:29:09.204Z,1.30
2019-05-29T10:31:37.276Z,1.10
2019-05-29T10:34:07.088Z,1.00
2019-05-29T10:36:36.829Z,1.27
2019-05-29T10:39:12.587Z,1.30
2019-05-29T10:41:40.206Z,1.00
2019-05-29T10:44:12.648Z,1.20
2019-05-29T10:46:41.706Z,1.20
2019-05-29T10:49:11.432Z,1.33
2019-05-29T10:51:57.997Z,1.40
2019-05-29T10:54:12.558Z,1.20
2019-05-29T10:56:42.256Z,1.03
2019-05-29T10:59:11.930Z,1.37
2019-05-29T11:01:41.638Z,1.17
2019-05-29T11:04:11.375Z,0.90
2019-05-29T11:06:41.347Z,1.30
2019-05-29T11:09:11.132Z,1.00
2019-05-29T11:11:40.949Z,1.20
2019-05-29T11:14:10.732Z,1.23
2019-05-29T11:16:40.581Z,1.20
2019-05-29T11:19:10.272Z,1.30
2019-05-29T11:21:40.046Z,1.50
2019-05-29T11:24:10.149Z,1.27
2019-05-29T11:26:40.374Z,0.97
2019-05-29T11:29:10.094Z,1.20
2019-05-29T11:31:39.756Z,1.10
2019-05-29T11:34:09.534Z,1.20
2019-05-29T11:36:39.349Z,1.50
2019-05-29T11:39:10.220Z,1.57
2019-05-29T11:41:39.910Z,1.53
2019-05-29T11:44:09.722Z,1.30
2019-05-29T11:46:39.510Z,1.37
2019-05-29T11:49:09.181Z,2.50
2019-05-29T11:51:38.927Z,1.50
2019-05-29T11:54:08.663Z,4.83
2019-05-29T11:56:38.391Z,1.30
2019-05-29T11:59:08.238Z,1.33
2019-05-29T12:01:49.789Z,1.57
2019-05-29T12:04:24.387Z,1.13
2019-05-29T12:06:41.035Z,1.20
2019-05-29T12:09:11.675Z,1.50
2019-05-29T12:11:41.391Z,1.67
2019-05-29T12:14:11.163Z,1.30
2019-05-29T12:16:40.825Z,1.17
2019-05-29T12:19:10.574Z,1.47
2019-05-29T12:21:42.694Z,1.47
2019-05-29T12:24:11.601Z,1.40
2019-05-29T12:26:41.267Z,1.40
2019-05-29T12:29:11.849Z,1.40
2019-05-29T12:31:41.801Z,1.30
2019-05-29T12:34:18.789Z,1.30
2019-05-29T12:36:42.910Z,1.33
2019-05-29T12:39:12.640Z,1.40
2019-05-29T12:41:42.363Z,1.23
2019-05-29T12:44:12.171Z,1.60
2019-05-29T12:46:41.857Z,1.40
2019-05-29T12:49:11.586Z,1.00
2019-05-29T12:51:41.344Z,1.10
2019-05-29T12:54:10.988Z,1.30
2019-05-29T12:56:40.726Z,1.10
2019-05-29T12:59:10.646Z,1.20
2019-05-29T13:01:40.360Z,1.27
2019-05-29T13:04:10.007Z,1.43
2019-05-29T13:06:39.716Z,1.30
2019-05-29T13:09:10.336Z,1.07
2019-05-29T13:11:40.122Z,1.40
2019-05-29T13:14:09.841Z,1.80
2019-05-29T13:16:39.591Z,1.60
2019-05-29T13:19:09.260Z,1.20
2019-05-29T13:21:38.948Z,1.27
2019-05-29T13:24:11.255Z,1.70
2019-05-29T13:26:40.743Z,1.70
2019-05-29T13:29:10.466Z,2.17
2019-05-29T13:31:40.197Z,2.03
2019-05-29T13:34:09.927Z,2.20
2019-05-29T13:36:39.585Z,2.17
2019-05-29T13:39:10.202Z,1.40
2019-05-29T13:41:39.917Z,1.27
2019-05-29T13:44:09.665Z,1.50
2019-05-29T13:46:42.079Z,1.60
2019-05-29T13:49:11.743Z,1.30
2019-05-29T13:51:41.456Z,1.00
2019-05-29T13:54:16.802Z,1.23
2019-05-29T13:56:43.048Z,1.30
2019-05-29T13:59:12.744Z,1.23
2019-05-29T14:01:47.789Z,1.10
2019-05-29T14:04:13.875Z,1.17
2019-05-29T14:06:43.585Z,1.30
2019-05-29T14:09:13.367Z,1.40
2019-05-29T14:11:43.112Z,1.63
2019-05-29T14:14:13.677Z,2.20
2019-05-29T14:16:43.589Z,1.87
2019-05-29T14:19:13.600Z,2.10
2019-05-29T14:21:43.316Z,1.97
2019-05-29T14:24:26.689Z,1.83
2019-05-29T14:26:44.450Z,2.13
2019-05-29T14:29:14.165Z,2.53
2019-05-29T14:31:43.855Z,3.40
2019-05-29T14:34:13.529Z,2.97
2019-05-29T14:36:43.326Z,2.30
2019-05-29T14:39:13.009Z,2.07
2019-05-29T14:41:42.744Z,2.37
2019-05-29T14:44:12.469Z,1.70
2019-05-29T14:46:42.141Z,1.97
2019-05-29T14:49:13.377Z,1.57
2019-05-29T14:51:43.400Z,1.70
2019-05-29T14:54:13.210Z,2.40
2019-05-29T14:56:43.222Z,2.70
2019-05-29T14:59:13.627Z,2.60
2019-05-29T15:01:43.598Z,2.10
2019-05-29T15:04:14.722Z,1.97
2019-05-29T15:06:44.624Z,1.90
2019-05-29T15:09:14.413Z,1.50
2019-05-29T15:11:44.152Z,1.70
2019-05-29T15:14:14.442Z,1.60
2019-05-29T15:16:44.322Z,1.70
2019-05-29T15:19:15.260Z,1.30
2019-05-29T15:21:45.019Z,1.83
2019-05-29T15:24:15.863Z,1.90
2019-05-29T15:26:45.740Z,2.10
2019-05-29T15:29:17.919Z,2.00
2019-05-29T15:31:46.808Z,1.67
2019-05-29T15:34:16.611Z,1.43
2019-05-29T15:36:46.357Z,1.17
2019-05-29T15:39:16.882Z,1.30
2019-05-29T15:41:46.684Z,1.90
2019-05-29T15:44:17.256Z,1.90
2019-05-29T15:46:47.096Z,1.63
2019-05-29T15:49:17.247Z,1.60
2019-05-29T15:51:47.205Z,1.60
2019-05-29T15:54:17.576Z,1.40
2019-05-29T15:56:47.395Z,1.70
2019-05-29T15:59:18.877Z,2.00
2019-05-29T16:01:48.593Z,1.60
2019-05-29T16:04:18.313Z,2.20
2019-05-29T16:06:47.982Z,1.57
2019-05-29T16:09:18.744Z,1.80
2019-05-29T16:11:48.652Z,1.60
2019-05-29T16:14:19.235Z,1.87
2019-05-29T16:16:49.096Z,2.10
2019-05-29T16:19:18.813Z,1.80
2019-05-29T16:21:48.678Z,2.37
2019-05-29T16:24:19.048Z,2.40
2019-05-29T16:26:48.912Z,2.03
2019-05-29T16:29:19.712Z,1.90
2019-05-29T16:31:49.513Z,1.93
2019-05-29T16:34:20.319Z,1.60
2019-05-29T16:36:50.750Z,1.70
2019-05-29T16:39:21.419Z,1.50
2019-05-29T16:41:51.904Z,1.87
2019-05-29T16:44:29.007Z,1.93
2019-05-29T16:46:53.039Z,1.50
2019-05-29T16:49:23.134Z,1.50
2019-05-29T16:51:52.992Z,1.40
2019-05-29T16:54:23.301Z,1.40
2019-05-29T16:56:53.052Z,1.53
2019-05-29T16:59:25.372Z,1.50
2019-05-29T17:01:54.241Z,1.53
2019-05-29T17:04:24.058Z,1.93
2019-05-29T17:06:53.785Z,1.87
2019-05-29T17:09:24.584Z,1.67
2019-05-29T17:11:54.291Z,2.43
2019-05-29T17:14:25.022Z,2.77
2019-05-29T17:16:55.059Z,2.50
2019-05-29T17:19:25.220Z,2.77
2019-05-29T17:21:55.462Z,2.40
2019-05-29T17:24:25.320Z,2.27
2019-05-29T17:26:55.006Z,2.87
2019-05-29T17:29:25.064Z,2.63
2019-05-29T17:31:54.820Z,2.00
2019-05-29T17:34:25.218Z,1.70
2019-05-29T17:36:55.247Z,1.80
2019-05-29T17:39:25.148Z,2.00
2019-05-29T17:41:55.026Z,1.90
2019-05-29T17:44:25.683Z,2.00
2019-05-29T17:46:55.634Z,1.60
2019-05-29T17:49:33.057Z,3.37
2019-05-29T17:51:56.887Z,2.83
2019-05-29T17:54:26.846Z,2.03
2019-05-29T17:56:56.617Z,1.63
2019-05-29T17:59:26.423Z,1.60
2019-05-29T18:01:56.092Z,1.70
2019-05-29T18:04:26.781Z,1.87
2019-05-29T18:06:56.830Z,2.43
2019-05-29T18:09:28.801Z,5.93
2019-05-29T18:11:58.105Z,2.90
2019-05-29T18:14:27.917Z,2.27
2019-05-29T18:16:57.622Z,1.60
2019-05-29T18:19:28.205Z,1.43
2019-05-29T18:21:58.525Z,1.30
2019-05-29T18:24:28.318Z,1.70
2019-05-29T18:26:59.249Z,1.97
2019-05-29T18:29:29.735Z,1.60
2019-05-29T18:31:59.693Z,1.20
2019-05-29T18:34:29.710Z,1.37
2019-05-29T18:36:59.621Z,1.23
2019-05-29T18:39:29.408Z,1.17
2019-05-29T18:41:59.129Z,1.37
2019-05-29T18:44:29.034Z,1.93
2019-05-29T18:46:58.873Z,2.40
2019-05-29T18:49:28.732Z,2.77
2019-05-29T18:52:00.466Z,2.23
2019-05-29T18:54:30.155Z,1.70
2019-05-29T18:57:14.412Z,1.60
2019-05-29T18:59:31.812Z,1.80
2019-05-29T19:02:01.665Z,2.30
2019-05-29T19:04:31.906Z,4.13
2019-05-29T19:07:02.091Z,1.93
2019-05-29T19:09:32.139Z,2.90
2019-05-29T19:12:01.824Z,2.97
2019-05-29T19:14:32.546Z,3.60
2019-05-29T19:17:02.414Z,2.47
2019-05-29T19:19:32.540Z,1.80
2019-05-29T19:22:03.858Z,2.20
2019-05-29T19:24:33.612Z,2.40
2019-05-29T19:27:03.380Z,1.80
2019-05-29T19:29:33.404Z,1.90
2019-05-29T19:32:03.333Z,2.10
2019-05-29T19:34:33.671Z,1.73
2019-05-29T19:37:03.531Z,1.50
2019-05-29T19:39:34.154Z,1.90
2019-05-29T19:42:04.214Z,3.40
2019-05-29T19:44:34.576Z,7.40
2019-05-29T19:47:04.457Z,13.30
2019-05-29T19:49:35.316Z,8.40
2019-05-29T19:52:05.295Z,4.73
2019-05-29T19:54:35.753Z,6.70
2019-05-29T19:57:05.817Z,8.70
2019-05-29T19:59:36.284Z,5.50
2019-05-29T20:02:06.370Z,4.90
2019-05-29T20:04:36.939Z,3.90
2019-05-29T20:07:06.874Z,9.40
2019-05-29T20:09:37.597Z,11.17
2019-05-29T20:12:07.440Z,3.80
2019-05-29T20:14:38.096Z,3.17
2019-05-29T20:17:07.937Z,4.73
2019-05-29T20:19:40.870Z,4.30
2019-05-29T20:22:09.427Z,6.60
2019-05-29T20:24:39.418Z,7.33
2019-05-29T20:27:09.226Z,3.20
2019-05-29T20:29:39.189Z,3.03
2019-05-29T20:32:09.031Z,3.07
2019-05-29T20:34:39.037Z,10.63
2019-05-29T20:37:09.058Z,6.20
2019-05-29T20:39:38.799Z,3.50
2019-05-29T20:42:08.628Z,3.63
2019-05-29T20:44:38.738Z,7.20
2019-05-29T20:47:08.599Z,5.10
2019-05-29T20:49:38.238Z,2.93
2019-05-29T20:52:08.136Z,2.60
2019-05-29T20:54:37.986Z,3.73
2019-05-29T20:57:13.296Z,4.87
2019-05-29T20:59:43.070Z,3.33
2019-05-29T21:02:12.849Z,2.90
2019-05-29T21:04:42.888Z,2.70
2019-05-29T21:07:12.756Z,2.60
2019-05-29T21:09:43.316Z,2.63
2019-05-29T21:12:13.279Z,5.33
2019-05-29T21:14:44.628Z,11.70
2019-05-29T21:17:14.488Z,15.13
2019-05-29T21:19:44.712Z,3.37
2019-05-29T21:22:14.529Z,2.17
2019-05-29T21:24:50.048Z,2.07
2019-05-29T21:27:15.779Z,2.00
2019-05-29T21:29:45.888Z,1.90
2019-05-29T21:32:15.585Z,2.30
2019-05-29T21:34:46.221Z,2.10
2019-05-29T21:37:16.023Z,2.17
2019-05-29T21:39:46.658Z,1.87
2019-05-29T21:42:16.497Z,2.23
2019-05-29T21:44:47.126Z,1.70
2019-05-29T21:47:16.904Z,2.30
2019-05-29T21:49:47.429Z,1.87
2019-05-29T21:52:17.399Z,2.13
2019-05-29T21:54:47.772Z,2.17
2019-05-29T21:57:17.599Z,1.70
2019-05-29T21:59:48.089Z,1.93
2019-05-29T22:02:18.218Z,1.60
2019-05-29T22:04:48.739Z,1.70
2019-05-29T22:07:18.635Z,2.30
2019-05-29T22:09:48.383Z,1.90
2019-05-29T22:12:18.693Z,1.97
2019-05-29T22:14:48.694Z,1.70
2019-05-29T22:17:18.566Z,2.20
2019-05-29T22:19:48.269Z,2.13
2019-05-29T22:22:18.361Z,2.30
2019-05-29T22:24:48.058Z,1.80
2019-05-29T22:27:17.815Z,2.10
2019-05-29T22:29:47.501Z,2.17
2019-05-29T22:32:17.163Z,2.10
2019-05-29T22:34:46.816Z,2.30
2019-05-29T22:37:16.589Z,2.30
2019-05-29T22:39:46.569Z,2.10
2019-05-29T22:42:16.303Z,2.33
2019-05-29T22:44:45.952Z,2.00
2019-05-29T22:47:15.790Z,3.83
2019-05-29T22:49:45.534Z,2.83
2019-05-29T22:52:15.219Z,2.90
2019-05-29T22:54:44.950Z,2.50
2019-05-29T22:57:14.802Z,2.30
2019-05-29T22:59:44.535Z,2.47
2019-05-29T23:02:14.192Z,2.40
2019-05-29T23:04:43.850Z,2.30
2019-05-29T23:07:13.668Z,2.50
2019-05-29T23:09:43.473Z,2.30
2019-05-29T23:12:14.063Z,2.10
2019-05-29T23:14:43.848Z,2.30
2019-05-29T23:17:13.476Z,2.10
2019-05-29T23:19:43.235Z,2.20
2019-05-29T23:22:12.890Z,2.40
2019-05-29T23:24:42.651Z,2.20
2019-05-29T23:27:12.310Z,2.30
2019-05-29T23:29:48.969Z,1.93
2019-05-29T23:32:13.393Z,2.30
2019-05-29T23:34:43.070Z,2.10
2019-05-29T23:37:13.817Z,2.30
2019-05-29T23:39:43.764Z,2.33
2019-05-29T23:42:13.470Z,2.03
2019-05-29T23:44:43.176Z,2.10
2019-05-29T23:47:12.904Z,2.03
2019-05-29T23:49:42.578Z,2.30
2019-05-29T23:52:12.251Z,2.03
2019-05-29T23:54:42.115Z,2.17
2019-05-29T23:57:11.814Z,2.53
2019-05-29T23:59:41.570Z,2.33
